sensor_id;sensor_type;location;lat;lon;timestamp;pressure;altitude;pressure_sealevel;temperature;humidity
77013;BME280;67260;53.130;17.982;2023-05-10T00:00:43;101534.63;;;9.43;45.65
77013;BME280;67260;53.130;17.982;2023-05-10T00:03:10;101533.62;;;9.42;45.67
77013;BME280;67260;53.130;17.982;2023-05-10T00:05:36;101529.36;;;9.40;45.64
77013;BME280;67260;53.130;17.982;2023-05-10T00:08:02;101530.95;;;9.37;45.55
77013;BME280;67260;53.130;17.982;2023-05-10T00:10:28;101529.11;;;9.34;45.73
77013;BME280;67260;53.130;17.982;2023-05-10T00:12:55;101532.40;;;9.30;45.67
77013;BME280;67260;53.130;17.982;2023-05-10T00:15:21;101526.52;;;9.26;45.90
77013;BME280;67260;53.130;17.982;2023-05-10T00:17:47;101530.54;;;9.22;46.02
77013;BME280;67260;53.130;17.982;2023-05-10T00:20:13;101529.95;;;9.21;46.18
77013;BME280;67260;53.130;17.982;2023-05-10T00:22:39;101523.47;;;9.18;45.89
77013;BME280;67260;53.130;17.982;2023-05-10T00:25:06;101520.94;;;9.16;46.05
77013;BME280;67260;53.130;17.982;2023-05-10T00:27:32;101520.61;;;9.14;45.88
77013;BME280;67260;53.130;17.982;2023-05-10T00:29:58;101515.11;;;9.11;46.11
77013;BME280;67260;53.130;17.982;2023-05-10T00:32:24;101513.94;;;9.12;46.25
77013;BME280;67260;53.130;17.982;2023-05-10T00:34:50;101508.73;;;9.13;46.18
77013;BME280;67260;53.130;17.982;2023-05-10T00:37:17;101512.84;;;9.12;45.95
77013;BME280;67260;53.130;17.982;2023-05-10T00:39:43;101507.73;;;9.09;46.16
77013;BME280;67260;53.130;17.982;2023-05-10T00:42:09;101503.84;;;9.06;46.09
77013;BME280;67260;53.130;17.982;2023-05-10T00:44:35;101506.92;;;9.02;46.50
77013;BME280;67260;53.130;17.982;2023-05-10T00:47:01;101504.80;;;8.97;46.33
77013;BME280;67260;53.130;17.982;2023-05-10T00:49:28;101504.40;;;8.90;46.56
77013;BME280;67260;53.130;17.982;2023-05-10T00:51:54;101501.73;;;8.82;46.54
77013;BME280;67260;53.130;17.982;2023-05-10T00:54:20;101500.95;;;8.75;47.14
77013;BME280;67260;53.130;17.982;2023-05-10T00:56:46;101496.16;;;8.69;47.18
77013;BME280;67260;53.130;17.982;2023-05-10T00:59:18;101494.00;;;8.63;47.47
77013;BME280;67260;53.130;17.982;2023-05-10T01:01:45;101496.18;;;8.58;47.54
77013;BME280;67260;53.130;17.982;2023-05-10T01:04:12;101498.23;;;8.52;47.66
77013;BME280;67260;53.130;17.982;2023-05-10T01:06:39;101501.23;;;8.45;47.58
77013;BME280;67260;53.130;17.982;2023-05-10T01:09:06;101502.41;;;8.37;47.97
77013;BME280;67260;53.130;17.982;2023-05-10T01:11:37;101496.19;;;8.30;48.20
77013;BME280;67260;53.130;17.982;2023-05-10T01:14:04;101494.15;;;8.23;48.29
77013;BME280;67260;53.130;17.982;2023-05-10T01:16:38;101492.64;;;8.17;48.80
77013;BME280;67260;53.130;17.982;2023-05-10T01:19:18;101490.74;;;8.12;48.56
77013;BME280;67260;53.130;17.982;2023-05-10T01:22:04;101492.09;;;8.08;49.36
77013;BME280;67260;53.130;17.982;2023-05-10T01:32:57;101478.72;;;7.89;49.38
77013;BME280;67260;53.130;17.982;2023-05-10T01:35:32;101479.27;;;7.84;49.63
77013;BME280;67260;53.130;17.982;2023-05-10T01:38:13;101475.64;;;7.80;50.21
77013;BME280;67260;53.130;17.982;2023-05-10T01:43:11;101476.23;;;7.72;50.21
77013;BME280;67260;53.130;17.982;2023-05-10T01:46:07;101476.60;;;7.69;50.47
77013;BME280;67260;53.130;17.982;2023-05-10T01:48:42;101472.02;;;7.64;50.64
77013;BME280;67260;53.130;17.982;2023-05-10T01:51:21;101475.00;;;7.61;50.72
77013;BME280;67260;53.130;17.982;2023-05-10T01:53:49;101472.09;;;7.57;50.69
77013;BME280;67260;53.130;17.982;2023-05-10T01:56:24;101473.09;;;7.54;50.80
77013;BME280;67260;53.130;17.982;2023-05-10T01:58:52;101472.56;;;7.51;50.88
77013;BME280;67260;53.130;17.982;2023-05-10T02:01:20;101469.11;;;7.47;50.98
77013;BME280;67260;53.130;17.982;2023-05-10T02:03:49;101466.56;;;7.45;51.18
77013;BME280;67260;53.130;17.982;2023-05-10T02:06:18;101466.36;;;7.41;51.03
77013;BME280;67260;53.130;17.982;2023-05-10T02:08:47;101463.52;;;7.38;51.04
77013;BME280;67260;53.130;17.982;2023-05-10T02:11:15;101460.30;;;7.34;51.50
77013;BME280;67260;53.130;17.982;2023-05-10T02:13:44;101457.06;;;7.32;52.08
77013;BME280;67260;53.130;17.982;2023-05-10T02:16:12;101452.36;;;7.28;51.97
77013;BME280;67260;53.130;17.982;2023-05-10T02:18:40;101452.48;;;7.26;52.43
77013;BME280;67260;53.130;17.982;2023-05-10T02:21:07;101450.83;;;7.23;52.36
77013;BME280;67260;53.130;17.982;2023-05-10T02:23:34;101449.67;;;7.20;52.54
77013;BME280;67260;53.130;17.982;2023-05-10T02:26:02;101448.06;;;7.18;52.19
77013;BME280;67260;53.130;17.982;2023-05-10T02:28:29;101445.75;;;7.14;52.42
77013;BME280;67260;53.130;17.982;2023-05-10T02:30:58;101445.75;;;7.11;52.50
77013;BME280;67260;53.130;17.982;2023-05-10T02:33:25;101445.39;;;7.08;52.64
77013;BME280;67260;53.130;17.982;2023-05-10T02:35:53;101446.02;;;7.07;52.25
77013;BME280;67260;53.130;17.982;2023-05-10T02:38:21;101447.36;;;7.05;52.60
77013;BME280;67260;53.130;17.982;2023-05-10T02:40:50;101445.05;;;7.00;52.84
77013;BME280;67260;53.130;17.982;2023-05-10T02:43:18;101442.55;;;6.96;52.65
77013;BME280;67260;53.130;17.982;2023-05-10T02:45:47;101445.72;;;6.92;52.72
77013;BME280;67260;53.130;17.982;2023-05-10T02:48:13;101451.73;;;6.88;52.99
77013;BME280;67260;53.130;17.982;2023-05-10T02:50:44;101451.20;;;6.85;53.06
77013;BME280;67260;53.130;17.982;2023-05-10T02:53:15;101451.48;;;6.82;53.29
77013;BME280;67260;53.130;17.982;2023-05-10T02:55:49;101448.52;;;6.81;53.21
77013;BME280;67260;53.130;17.982;2023-05-10T02:58:17;101447.30;;;6.79;53.64
77013;BME280;67260;53.130;17.982;2023-05-10T03:00:45;101448.23;;;6.77;53.55
77013;BME280;67260;53.130;17.982;2023-05-10T03:03:12;101449.41;;;6.77;53.79
77013;BME280;67260;53.130;17.982;2023-05-10T03:05:38;101453.57;;;6.78;53.59
77013;BME280;67260;53.130;17.982;2023-05-10T03:08:04;101456.02;;;6.80;53.58
77013;BME280;67260;53.130;17.982;2023-05-10T03:10:33;101455.95;;;6.80;54.14
77013;BME280;67260;53.130;17.982;2023-05-10T03:13:25;101453.11;;;6.82;53.80
77013;BME280;67260;53.130;17.982;2023-05-10T03:16:01;101449.15;;;6.85;53.96
77013;BME280;67260;53.130;17.982;2023-05-10T03:18:42;101450.60;;;6.87;53.93
77013;BME280;67260;53.130;17.982;2023-05-10T03:21:11;101449.65;;;6.90;53.73
77013;BME280;67260;53.130;17.982;2023-05-10T03:23:43;101445.02;;;6.92;53.78
77013;BME280;67260;53.130;17.982;2023-05-10T03:26:17;101447.04;;;6.95;54.04
77013;BME280;67260;53.130;17.982;2023-05-10T03:28:44;101441.73;;;6.98;53.97
77013;BME280;67260;53.130;17.982;2023-05-10T03:31:12;101444.20;;;7.03;53.76
77013;BME280;67260;53.130;17.982;2023-05-10T03:33:46;101443.05;;;7.07;53.87
77013;BME280;67260;53.130;17.982;2023-05-10T03:36:13;101444.00;;;7.12;53.42
77013;BME280;67260;53.130;17.982;2023-05-10T03:38:39;101440.40;;;7.25;53.35
77013;BME280;67260;53.130;17.982;2023-05-10T03:41:05;101438.27;;;7.76;52.71
77013;BME280;67260;53.130;17.982;2023-05-10T03:43:32;101441.40;;;8.29;51.29
77013;BME280;67260;53.130;17.982;2023-05-10T03:45:58;101441.71;;;8.26;51.11
77013;BME280;67260;53.130;17.982;2023-05-10T03:48:24;101441.49;;;8.47;51.12
77013;BME280;67260;53.130;17.982;2023-05-10T03:50:50;101443.17;;;9.50;48.68
77013;BME280;67260;53.130;17.982;2023-05-10T03:53:16;101436.59;;;10.31;47.18
77013;BME280;67260;53.130;17.982;2023-05-10T03:55:42;101438.85;;;11.02;46.05
77013;BME280;67260;53.130;17.982;2023-05-10T03:58:10;101435.47;;;11.58;44.42
77013;BME280;67260;53.130;17.982;2023-05-10T04:00:37;101437.49;;;11.30;44.49
77013;BME280;67260;53.130;17.982;2023-05-10T04:03:09;101440.08;;;10.70;45.38
77013;BME280;67260;53.130;17.982;2023-05-10T04:05:35;101435.10;;;11.46;44.62
77013;BME280;67260;53.130;17.982;2023-05-10T04:08:02;101438.10;;;11.42;43.99
77013;BME280;67260;53.130;17.982;2023-05-10T04:10:29;101441.23;;;10.56;45.37
77013;BME280;67260;53.130;17.982;2023-05-10T04:12:56;101439.20;;;10.09;46.17
77013;BME280;67260;53.130;17.982;2023-05-10T04:15:22;101437.88;;;9.82;46.72
77013;BME280;67260;53.130;17.982;2023-05-10T04:17:48;101439.65;;;9.60;47.05
77013;BME280;67260;53.130;17.982;2023-05-10T04:20:14;101438.16;;;9.56;47.06
77013;BME280;67260;53.130;17.982;2023-05-10T04:22:40;101437.17;;;10.29;45.92
77013;BME280;67260;53.130;17.982;2023-05-10T04:25:06;101431.74;;;10.23;45.86
77013;BME280;67260;53.130;17.982;2023-05-10T04:27:33;101431.87;;;9.98;46.31
77013;BME280;67260;53.130;17.982;2023-05-10T04:29:59;101434.06;;;9.85;46.41
77013;BME280;67260;53.130;17.982;2023-05-10T04:32:25;101432.94;;;10.92;45.13
77013;BME280;67260;53.130;17.982;2023-05-10T04:34:51;101435.69;;;12.97;41.96
77013;BME280;67260;53.130;17.982;2023-05-10T04:37:17;101434.42;;;14.55;39.27
77013;BME280;67260;53.130;17.982;2023-05-10T04:39:43;101428.73;;;15.87;37.33
77013;BME280;67260;53.130;17.982;2023-05-10T04:42:09;101425.28;;;16.27;35.91
77013;BME280;67260;53.130;17.982;2023-05-10T04:44:36;101425.93;;;16.15;35.66
77013;BME280;67260;53.130;17.982;2023-05-10T04:47:02;101423.25;;;16.50;35.61
77013;BME280;67260;53.130;17.982;2023-05-10T04:49:29;101419.73;;;17.70;33.15
77013;BME280;67260;53.130;17.982;2023-05-10T04:51:55;101419.14;;;18.56;32.70
77013;BME280;67260;53.130;17.982;2023-05-10T04:54:23;101420.29;;;19.49;31.79
77013;BME280;67260;53.130;17.982;2023-05-10T04:56:49;101420.33;;;20.35;30.08
77013;BME280;67260;53.130;17.982;2023-05-10T04:59:15;101414.98;;;21.02;29.37
77013;BME280;67260;53.130;17.982;2023-05-10T05:01:41;101418.82;;;21.60;28.17
77013;BME280;67260;53.130;17.982;2023-05-10T05:04:07;101420.29;;;22.05;27.21
77013;BME280;67260;53.130;17.982;2023-05-10T05:06:33;101416.29;;;22.57;26.85
77013;BME280;67260;53.130;17.982;2023-05-10T05:08:58;101415.45;;;23.43;26.05
77013;BME280;67260;53.130;17.982;2023-05-10T05:11:25;101407.06;;;24.44;25.19
77013;BME280;67260;53.130;17.982;2023-05-10T05:13:51;101406.16;;;25.02;23.83
77013;BME280;67260;53.130;17.982;2023-05-10T05:16:17;101404.96;;;25.25;22.47
77013;BME280;67260;53.130;17.982;2023-05-10T05:18:43;101406.20;;;25.45;22.16
77013;BME280;67260;53.130;17.982;2023-05-10T05:21:17;101408.80;;;25.72;22.17
77013;BME280;67260;53.130;17.982;2023-05-10T05:23:43;101404.76;;;26.21;21.58
77013;BME280;67260;53.130;17.982;2023-05-10T05:26:10;101405.48;;;26.60;20.91
77013;BME280;67260;53.130;17.982;2023-05-10T05:28:36;101408.31;;;27.05;20.29
77013;BME280;67260;53.130;17.982;2023-05-10T05:31:04;101405.89;;;27.27;19.34
77013;BME280;67260;53.130;17.982;2023-05-10T05:33:31;101407.02;;;27.39;19.52
77013;BME280;67260;53.130;17.982;2023-05-10T05:36:00;101412.15;;;27.91;19.19
77013;BME280;67260;53.130;17.982;2023-05-10T05:38:28;101408.71;;;28.17;18.39
77013;BME280;67260;53.130;17.982;2023-05-10T05:40:54;101410.11;;;28.51;18.27
77013;BME280;67260;53.130;17.982;2023-05-10T05:43:20;101407.09;;;28.76;17.85
77013;BME280;67260;53.130;17.982;2023-05-10T05:45:46;101404.20;;;28.91;17.37
77013;BME280;67260;53.130;17.982;2023-05-10T05:48:12;101402.20;;;29.05;17.41
77013;BME280;67260;53.130;17.982;2023-05-10T05:50:38;101404.86;;;28.98;16.41
77013;BME280;67260;53.130;17.982;2023-05-10T05:53:04;101403.58;;;28.95;16.49
77013;BME280;67260;53.130;17.982;2023-05-10T05:55:30;101401.67;;;29.00;16.13
77013;BME280;67260;53.130;17.982;2023-05-10T05:57:58;101399.30;;;28.82;16.23
77013;BME280;67260;53.130;17.982;2023-05-10T06:00:24;101395.92;;;28.90;15.89
77013;BME280;67260;53.130;17.982;2023-05-10T06:02:50;101393.09;;;28.81;16.02
77013;BME280;67260;53.130;17.982;2023-05-10T06:05:16;101394.39;;;29.07;16.07
77013;BME280;67260;53.130;17.982;2023-05-10T06:07:42;101395.40;;;29.41;15.74
77013;BME280;67260;53.130;17.982;2023-05-10T06:10:08;101392.85;;;29.69;15.11
77013;BME280;67260;53.130;17.982;2023-05-10T06:12:35;101395.12;;;29.78;15.11
77013;BME280;67260;53.130;17.982;2023-05-10T06:15:02;101396.73;;;29.88;15.41
77013;BME280;67260;53.130;17.982;2023-05-10T06:17:30;101401.73;;;30.31;14.84
77013;BME280;67260;53.130;17.982;2023-05-10T06:19:56;101406.46;;;29.95;14.44
77013;BME280;67260;53.130;17.982;2023-05-10T06:22:22;101402.13;;;29.69;14.73
77013;BME280;67260;53.130;17.982;2023-05-10T06:24:49;101402.22;;;29.80;14.86
77013;BME280;67260;53.130;17.982;2023-05-10T06:27:15;101400.52;;;30.27;14.65
77013;BME280;67260;53.130;17.982;2023-05-10T06:29:41;101404.02;;;30.68;14.31
77013;BME280;67260;53.130;17.982;2023-05-10T06:32:07;101402.25;;;31.05;14.47
77013;BME280;67260;53.130;17.982;2023-05-10T06:34:33;101404.00;;;31.77;14.32
77013;BME280;67260;53.130;17.982;2023-05-10T06:36:59;101405.86;;;32.09;13.42
77013;BME280;67260;53.130;17.982;2023-05-10T06:39:25;101410.67;;;32.30;13.30
77013;BME280;67260;53.130;17.982;2023-05-10T06:41:51;101406.89;;;32.38;13.00
77013;BME280;67260;53.130;17.982;2023-05-10T06:44:18;101406.57;;;32.30;13.13
77013;BME280;67260;53.130;17.982;2023-05-10T06:46:44;101398.69;;;32.36;12.86
77013;BME280;67260;53.130;17.982;2023-05-10T06:49:10;101396.33;;;32.66;12.94
77013;BME280;67260;53.130;17.982;2023-05-10T06:51:36;101396.05;;;33.42;12.81
77013;BME280;67260;53.130;17.982;2023-05-10T06:54:03;101394.42;;;33.55;12.18
77013;BME280;67260;53.130;17.982;2023-05-10T06:56:32;101400.75;;;33.48;12.13
77013;BME280;67260;53.130;17.982;2023-05-10T06:58:58;101399.31;;;33.58;11.99
77013;BME280;67260;53.130;17.982;2023-05-10T07:01:24;101404.55;;;33.01;12.18
77013;BME280;67260;53.130;17.982;2023-05-10T07:03:50;101399.02;;;33.00;12.40
77013;BME280;67260;53.130;17.982;2023-05-10T07:06:16;101395.02;;;32.83;12.25
77013;BME280;67260;53.130;17.982;2023-05-10T07:08:42;101397.61;;;32.96;12.28
77013;BME280;67260;53.130;17.982;2023-05-10T07:11:08;101394.07;;;33.51;12.18
77013;BME280;67260;53.130;17.982;2023-05-10T07:13:34;101390.66;;;34.15;11.76
77013;BME280;67260;53.130;17.982;2023-05-10T07:16:02;101396.50;;;34.20;11.42
77013;BME280;67260;53.130;17.982;2023-05-10T07:18:28;101399.27;;;33.53;11.51
77013;BME280;67260;53.130;17.982;2023-05-10T07:20:54;101392.63;;;33.16;11.64
77013;BME280;67260;53.130;17.982;2023-05-10T07:23:21;101396.73;;;32.91;11.97
77013;BME280;67260;53.130;17.982;2023-05-10T07:25:48;101391.27;;;32.99;12.03
77013;BME280;67260;53.130;17.982;2023-05-10T07:28:15;101395.98;;;32.82;11.93
77013;BME280;67260;53.130;17.982;2023-05-10T07:30:42;101403.57;;;32.66;11.99
77013;BME280;67260;53.130;17.982;2023-05-10T07:33:11;101397.75;;;32.73;12.04
77013;BME280;67260;53.130;17.982;2023-05-10T07:35:38;101392.15;;;33.18;11.99
77013;BME280;67260;53.130;17.982;2023-05-10T07:38:04;101388.21;;;33.58;11.84
77013;BME280;67260;53.130;17.982;2023-05-10T07:40:31;101390.31;;;34.03;11.69
77013;BME280;67260;53.130;17.982;2023-05-10T07:42:57;101396.65;;;33.85;11.49
77013;BME280;67260;53.130;17.982;2023-05-10T07:45:24;101383.67;;;34.12;11.54
77013;BME280;67260;53.130;17.982;2023-05-10T07:47:50;101401.08;;;34.60;11.29
77013;BME280;67260;53.130;17.982;2023-05-10T07:50:16;101388.60;;;34.36;11.14
77013;BME280;67260;53.130;17.982;2023-05-10T07:52:42;101389.56;;;34.60;11.31
77013;BME280;67260;53.130;17.982;2023-05-10T07:55:09;101397.41;;;34.22;10.99
77013;BME280;67260;53.130;17.982;2023-05-10T07:57:35;101390.89;;;33.65;11.51
77013;BME280;67260;53.130;17.982;2023-05-10T08:00:01;101393.33;;;33.47;11.64
77013;BME280;67260;53.130;17.982;2023-05-10T08:02:27;101393.95;;;33.20;11.81
77013;BME280;67260;53.130;17.982;2023-05-10T08:04:53;101387.85;;;33.31;11.80
77013;BME280;67260;53.130;17.982;2023-05-10T08:07:21;101384.08;;;33.34;11.74
77013;BME280;67260;53.130;17.982;2023-05-10T08:09:48;101394.27;;;32.97;11.85
77013;BME280;67260;53.130;17.982;2023-05-10T08:12:14;101386.96;;;32.50;12.15
77013;BME280;67260;53.130;17.982;2023-05-10T08:14:40;101379.72;;;32.74;12.27
77013;BME280;67260;53.130;17.982;2023-05-10T08:17:06;101377.50;;;33.23;12.15
77013;BME280;67260;53.130;17.982;2023-05-10T08:19:32;101374.80;;;33.75;11.51
77013;BME280;67260;53.130;17.982;2023-05-10T08:21:58;101380.30;;;33.92;11.56
77013;BME280;67260;53.130;17.982;2023-05-10T08:24:28;101379.22;;;34.16;11.32
77013;BME280;67260;53.130;17.982;2023-05-10T08:26:54;101383.93;;;34.08;11.30
77013;BME280;67260;53.130;17.982;2023-05-10T08:29:20;101382.35;;;33.94;11.37
77013;BME280;67260;53.130;17.982;2023-05-10T08:31:46;101382.44;;;33.97;11.46
77013;BME280;67260;53.130;17.982;2023-05-10T08:34:12;101389.54;;;33.93;11.19
77013;BME280;67260;53.130;17.982;2023-05-10T08:36:38;101382.63;;;33.45;11.41
77013;BME280;67260;53.130;17.982;2023-05-10T08:39:04;101382.62;;;33.06;11.64
77013;BME280;67260;53.130;17.982;2023-05-10T08:41:33;101379.13;;;33.24;11.78
77013;BME280;67260;53.130;17.982;2023-05-10T08:44:04;101380.13;;;33.48;11.65
77013;BME280;67260;53.130;17.982;2023-05-10T08:46:36;101376.98;;;33.86;11.39
77013;BME280;67260;53.130;17.982;2023-05-10T08:49:06;101386.03;;;33.44;11.44
77013;BME280;67260;53.130;17.982;2023-05-10T08:51:36;101383.95;;;32.47;12.06
77013;BME280;67260;53.130;17.982;2023-05-10T08:54:03;101390.13;;;31.89;12.41
77013;BME280;67260;53.130;17.982;2023-05-10T08:56:30;101383.98;;;31.79;12.65
77013;BME280;67260;53.130;17.982;2023-05-10T08:58:57;101374.69;;;32.17;12.60
77013;BME280;67260;53.130;17.982;2023-05-10T09:01:24;101388.11;;;32.28;12.33
77013;BME280;67260;53.130;17.982;2023-05-10T09:03:51;101378.95;;;32.22;12.38
77013;BME280;67260;53.130;17.982;2023-05-10T09:06:17;101374.79;;;32.46;12.69
77013;BME280;67260;53.130;17.982;2023-05-10T09:08:44;101369.11;;;32.88;12.08
77013;BME280;67260;53.130;17.982;2023-05-10T09:11:12;101368.20;;;33.10;11.98
77013;BME280;67260;53.130;17.982;2023-05-10T09:13:39;101366.77;;;33.27;11.94
77013;BME280;67260;53.130;17.982;2023-05-10T09:16:05;101368.64;;;33.36;11.63
77013;BME280;67260;53.130;17.982;2023-05-10T09:18:32;101373.81;;;33.08;11.85
77013;BME280;67260;53.130;17.982;2023-05-10T09:20:57;101373.63;;;32.67;12.08
77013;BME280;67260;53.130;17.982;2023-05-10T09:23:23;101371.91;;;32.54;12.09
77013;BME280;67260;53.130;17.982;2023-05-10T09:26:06;101372.29;;;32.25;12.19
77013;BME280;67260;53.130;17.982;2023-05-10T09:31:17;101374.08;;;31.71;12.66
77013;BME280;67260;53.130;17.982;2023-05-10T09:33:47;101382.64;;;31.43;12.66
77013;BME280;67260;53.130;17.982;2023-05-10T09:36:15;101364.96;;;31.49;12.98
77013;BME280;67260;53.130;17.982;2023-05-10T09:38:49;101370.52;;;31.66;12.75
77013;BME280;67260;53.130;17.982;2023-05-10T09:41:21;101374.97;;;31.75;12.58
77013;BME280;67260;53.130;17.982;2023-05-10T09:43:48;101366.33;;;32.04;12.46
77013;BME280;67260;53.130;17.982;2023-05-10T09:46:15;101361.73;;;32.18;12.51
77013;BME280;67260;53.130;17.982;2023-05-10T09:48:48;101369.95;;;32.39;12.30
77013;BME280;67260;53.130;17.982;2023-05-10T09:51:20;101371.39;;;32.22;12.47
77013;BME280;67260;53.130;17.982;2023-05-10T09:53:47;101358.72;;;32.30;12.51
77013;BME280;67260;53.130;17.982;2023-05-10T09:56:33;101360.14;;;32.50;12.70
77013;BME280;67260;53.130;17.982;2023-05-10T09:59:05;101357.30;;;32.56;12.56
77013;BME280;67260;53.130;17.982;2023-05-10T10:01:31;101353.04;;;32.69;12.62
77013;BME280;67260;53.130;17.982;2023-05-10T10:03:58;101364.69;;;32.60;12.38
77013;BME280;67260;53.130;17.982;2023-05-10T10:06:24;101358.05;;;32.13;12.72
77013;BME280;67260;53.130;17.982;2023-05-10T10:08:52;101341.22;;;32.15;12.95
77013;BME280;67260;53.130;17.982;2023-05-10T10:11:20;101350.14;;;32.40;12.86
77013;BME280;67260;53.130;17.982;2023-05-10T10:13:46;101345.64;;;32.40;12.80
77013;BME280;67260;53.130;17.982;2023-05-10T10:16:12;101345.34;;;32.69;12.89
77013;BME280;67260;53.130;17.982;2023-05-10T10:18:38;101334.40;;;32.65;12.22
77013;BME280;67260;53.130;17.982;2023-05-10T10:21:06;101341.46;;;32.53;12.52
77013;BME280;67260;53.130;17.982;2023-05-10T10:23:36;101339.21;;;32.52;12.58
77013;BME280;67260;53.130;17.982;2023-05-10T10:26:06;101330.98;;;32.48;12.37
77013;BME280;67260;53.130;17.982;2023-05-10T10:28:49;101326.02;;;32.00;12.53
77013;BME280;67260;53.130;17.982;2023-05-10T10:34:06;101330.39;;;31.58;13.33
77013;BME280;67260;53.130;17.982;2023-05-10T10:36:45;101327.48;;;31.64;13.03
77013;BME280;67260;53.130;17.982;2023-05-10T10:39:12;101330.77;;;31.77;13.04
77013;BME280;67260;53.130;17.982;2023-05-10T10:41:40;101328.23;;;31.41;12.75
77013;BME280;67260;53.130;17.982;2023-05-10T10:44:24;101319.67;;;31.05;12.88
77013;BME280;67260;53.130;17.982;2023-05-10T10:54:40;101312.85;;;29.74;14.43
77013;BME280;67260;53.130;17.982;2023-05-10T10:57:13;101317.96;;;29.51;14.65
77013;BME280;67260;53.130;17.982;2023-05-10T10:59:43;101319.53;;;29.14;14.96
77013;BME280;67260;53.130;17.982;2023-05-10T11:02:10;101315.27;;;28.89;15.25
77013;BME280;67260;53.130;17.982;2023-05-10T11:04:42;101311.53;;;28.77;15.22
77013;BME280;67260;53.130;17.982;2023-05-10T11:07:19;101302.83;;;28.93;15.57
77013;BME280;67260;53.130;17.982;2023-05-10T11:09:49;101308.22;;;29.34;15.08
77013;BME280;67260;53.130;17.982;2023-05-10T11:12:15;101306.90;;;29.42;15.11
77013;BME280;67260;53.130;17.982;2023-05-10T11:14:42;101315.16;;;29.01;15.59
77013;BME280;67260;53.130;17.982;2023-05-10T11:17:26;101304.33;;;28.49;15.91
77013;BME280;67260;53.130;17.982;2023-05-10T11:20:09;101308.53;;;28.11;16.11
77013;BME280;67260;53.130;17.982;2023-05-10T11:22:49;101312.63;;;27.71;16.37
77013;BME280;67260;53.130;17.982;2023-05-10T11:25:19;101308.00;;;27.29;16.86
77013;BME280;67260;53.130;17.982;2023-05-10T11:27:48;101297.63;;;26.89;17.36
77013;BME280;67260;53.130;17.982;2023-05-10T11:30:17;101300.60;;;26.69;17.85
77013;BME280;67260;53.130;17.982;2023-05-10T11:32:43;101311.17;;;26.75;17.46
77013;BME280;67260;53.130;17.982;2023-05-10T11:35:11;101307.25;;;26.54;17.56
77013;BME280;67260;53.130;17.982;2023-05-10T11:37:41;101297.67;;;26.50;17.95
77013;BME280;67260;53.130;17.982;2023-05-10T11:40:09;101312.42;;;26.60;17.67
77013;BME280;67260;53.130;17.982;2023-05-10T11:42:37;101299.31;;;26.47;17.63
77013;BME280;67260;53.130;17.982;2023-05-10T11:45:07;101290.95;;;26.35;17.86
77013;BME280;67260;53.130;17.982;2023-05-10T11:47:38;101306.09;;;26.24;18.04
77013;BME280;67260;53.130;17.982;2023-05-10T11:50:05;101301.80;;;25.89;18.09
77013;BME280;67260;53.130;17.982;2023-05-10T11:52:36;101295.13;;;25.60;18.13
77013;BME280;67260;53.130;17.982;2023-05-10T11:55:05;101301.45;;;25.15;18.82
77013;BME280;67260;53.130;17.982;2023-05-10T11:57:32;101303.12;;;24.55;19.28
77013;BME280;67260;53.130;17.982;2023-05-10T11:59:59;101306.77;;;24.18;19.42
77013;BME280;67260;53.130;17.982;2023-05-10T12:02:25;101295.80;;;23.96;19.50
77013;BME280;67260;53.130;17.982;2023-05-10T12:04:51;101284.27;;;23.85;19.87
77013;BME280;67260;53.130;17.982;2023-05-10T12:07:18;101290.89;;;23.78;19.97
77013;BME280;67260;53.130;17.982;2023-05-10T12:09:44;101295.69;;;23.63;20.27
77013;BME280;67260;53.130;17.982;2023-05-10T12:12:44;101304.88;;;23.42;20.57
77013;BME280;67260;53.130;17.982;2023-05-10T12:15:31;101296.17;;;23.25;20.79
77013;BME280;67260;53.130;17.982;2023-05-10T12:18:02;101303.37;;;23.11;20.87
77013;BME280;67260;53.130;17.982;2023-05-10T12:20:39;101306.47;;;23.06;20.79
77013;BME280;67260;53.130;17.982;2023-05-10T12:23:05;101290.02;;;22.99;21.15
77013;BME280;67260;53.130;17.982;2023-05-10T12:25:36;101302.14;;;22.81;21.17
77013;BME280;67260;53.130;17.982;2023-05-10T12:28:06;101307.09;;;22.19;21.56
77013;BME280;67260;53.130;17.982;2023-05-10T12:30:34;101295.64;;;21.69;22.11
77013;BME280;67260;53.130;17.982;2023-05-10T12:33:07;101297.83;;;21.41;22.43
77013;BME280;67260;53.130;17.982;2023-05-10T12:35:52;101282.70;;;21.12;22.71
77013;BME280;67260;53.130;17.982;2023-05-10T12:38:43;101287.83;;;21.01;23.12
77013;BME280;67260;53.130;17.982;2023-05-10T12:41:11;101300.02;;;20.90;23.41
77013;BME280;67260;53.130;17.982;2023-05-10T12:43:41;101288.94;;;20.75;23.41
77013;BME280;67260;53.130;17.982;2023-05-10T12:46:08;101287.52;;;20.56;23.37
77013;BME280;67260;53.130;17.982;2023-05-10T12:48:36;101299.54;;;20.41;23.79
77013;BME280;67260;53.130;17.982;2023-05-10T12:51:03;101295.05;;;20.23;24.12
77013;BME280;67260;53.130;17.982;2023-05-10T12:53:30;101292.94;;;20.10;24.47
77013;BME280;67260;53.130;17.982;2023-05-10T12:55:58;101287.98;;;20.06;24.36
77013;BME280;67260;53.130;17.982;2023-05-10T12:58:31;101284.25;;;19.99;24.25
77013;BME280;67260;53.130;17.982;2023-05-10T13:01:01;101285.61;;;19.94;24.30
77013;BME280;67260;53.130;17.982;2023-05-10T13:03:30;101286.07;;;19.86;24.35
77013;BME280;67260;53.130;17.982;2023-05-10T13:05:57;101288.43;;;19.80;24.26
77013;BME280;67260;53.130;17.982;2023-05-10T13:08:23;101283.63;;;19.72;24.47
77013;BME280;67260;53.130;17.982;2023-05-10T13:10:49;101269.95;;;19.69;24.46
77013;BME280;67260;53.130;17.982;2023-05-10T13:13:15;101282.20;;;19.69;24.81